Time;durP1;ratioP1;P1;durP2;ratioP2;P2;SDS_P1;SDS_P2;PMS_P1;PMS_P2;Temp;Humidity;BMP_temperature;BMP_pressure;BME280_temperature;BME280_humidity;BME280_pressure;Samples;Min_cycle;Max_cycle;Signal;HPM_P1;HPM_P2
2021/03/15 00:00:54;;;;;;;2.63;1.10;;;4.70;93.90;;;;;;4989258;28;20058;-48
2021/03/15 00:03:20;;;;;;;4.00;1.20;;;4.70;94.00;;;;;;4996338;28;20157;-49
2021/03/15 00:05:46;;;;;;;5.30;1.10;;;4.70;93.90;;;;;;5002032;28;20054;-49
2021/03/15 00:08:12;;;;;;;2.38;0.90;;;4.70;93.90;;;;;;4996557;28;20069;-46
2021/03/15 00:10:38;;;;;;;4.15;1.33;;;4.70;93.90;;;;;;4996983;28;20070;-47
2021/03/15 00:13:07;;;;;;;2.67;1.20;;;4.70;94.00;;;;;;4997602;28;20116;-46
2021/03/15 00:15:33;;;;;;;4.68;1.48;;;4.70;94.00;;;;;;4998032;28;20451;-45
2021/03/15 00:18:02;;;;;;;5.55;1.40;;;4.70;94.00;;;;;;4994913;28;20060;-47
2021/03/15 00:20:28;;;;;;;2.50;1.25;;;4.70;94.10;;;;;;4999884;28;20949;-46
2021/03/15 00:22:57;;;;;;;5.47;1.50;;;4.60;94.00;;;;;;5001161;28;20050;-51
2021/03/15 00:25:23;;;;;;;4.10;1.63;;;4.70;94.10;;;;;;4995535;28;20136;-46
2021/03/15 00:27:48;;;;;;;3.90;1.27;;;4.70;94.20;;;;;;5001206;28;20380;-49
2021/03/15 00:30:17;;;;;;;5.68;1.58;;;4.70;94.20;;;;;;5003628;28;20669;-49
2021/03/15 00:32:45;;;;;;;3.13;1.67;;;4.70;94.20;;;;;;4993476;28;20405;-46
2021/03/15 00:35:14;;;;;;;4.93;1.63;;;4.70;94.30;;;;;;4992757;28;20073;-50
2021/03/15 00:37:41;;;;;;;4.88;2.00;;;4.70;94.30;;;;;;5002291;28;20043;-49
2021/03/15 00:40:09;;;;;;;5.35;1.90;;;4.80;94.40;;;;;;5003734;28;20057;-51
2021/03/15 00:42:36;;;;;;;4.57;1.60;;;4.70;94.40;;;;;;5004046;28;20054;-47
2021/03/15 00:45:04;;;;;;;5.75;1.88;;;4.70;94.50;;;;;;4988629;28;20146;-49
2021/03/15 00:47:31;;;;;;;7.13;2.20;;;4.70;94.50;;;;;;4996370;28;20049;-46
2021/03/15 00:49:58;;;;;;;4.65;2.38;;;4.70;94.50;;;;;;4997160;28;20054;-47
2021/03/15 00:52:26;;;;;;;6.07;2.45;;;4.70;94.60;;;;;;4992214;28;20050;-46
2021/03/15 00:54:53;;;;;;;4.35;2.45;;;4.70;94.60;;;;;;4989955;28;20194;-47
2021/03/15 00:57:19;;;;;;;6.38;2.13;;;4.70;94.60;;;;;;5002375;28;20564;-51
2021/03/15 00:59:45;;;;;;;4.03;1.77;;;4.80;94.60;;;;;;4998142;28;20633;-50
2021/03/15 01:02:11;;;;;;;3.40;1.92;;;4.70;94.60;;;;;;4996187;28;20818;-47
2021/03/15 01:04:37;;;;;;;6.13;1.77;;;4.70;94.60;;;;;;4982625;28;20080;-46
2021/03/15 01:07:06;;;;;;;3.80;1.33;;;4.70;94.60;;;;;;5002259;28;20096;-47
2021/03/15 01:09:34;;;;;;;3.15;1.45;;;4.70;94.40;;;;;;4998415;28;20057;-49
2021/03/15 01:12:00;;;;;;;3.45;1.42;;;4.70;94.50;;;;;;4995570;28;20121;-49
2021/03/15 01:14:26;;;;;;;3.13;1.63;;;4.70;94.40;;;;;;5000242;28;20414;-48
2021/03/15 01:16:52;;;;;;;3.00;1.52;;;4.70;94.30;;;;;;4996054;28;20053;-50
2021/03/15 01:19:17;;;;;;;4.55;1.83;;;4.70;94.30;;;;;;4993009;28;20096;-50
2021/03/15 01:21:48;;;;;;;5.50;1.92;;;4.70;94.20;;;;;;4994081;28;20068;-48
2021/03/15 01:24:14;;;;;;;4.75;1.90;;;4.70;94.30;;;;;;4987672;28;20054;-49
2021/03/15 01:26:40;;;;;;;5.72;2.45;;;4.70;94.30;;;;;;4998834;28;20068;-46
2021/03/15 01:29:06;;;;;;;3.63;1.92;;;4.80;94.30;;;;;;4999069;28;20145;-49
2021/03/15 01:31:32;;;;;;;2.65;1.67;;;4.70;94.30;;;;;;4993473;28;20513;-48
2021/03/15 01:34:00;;;;;;;2.65;1.67;;;4.80;94.40;;;;;;4990301;28;20054;-48
2021/03/15 01:36:26;;;;;;;2.65;1.40;;;4.80;94.40;;;;;;4986712;28;20050;-49
2021/03/15 01:38:53;;;;;;;5.43;2.10;;;4.70;94.40;;;;;;4997625;28;20100;-53
2021/03/15 01:41:19;;;;;;;3.22;1.48;;;4.70;94.40;;;;;;4994419;28;20785;-47
2021/03/15 01:43:44;;;;;;;2.63;1.67;;;4.60;94.30;;;;;;5002260;28;20057;-53
2021/03/15 01:46:10;;;;;;;2.95;1.88;;;4.70;94.40;;;;;;4991807;28;20096;-51
2021/03/15 01:48:37;;;;;;;5.90;1.90;;;4.70;94.50;;;;;;4997594;28;20100;-54
2021/03/15 01:51:03;;;;;;;4.00;2.40;;;4.70;94.60;;;;;;4999841;28;20050;-47
2021/03/15 01:53:29;;;;;;;2.40;1.80;;;4.70;94.60;;;;;;4992824;28;20057;-50
2021/03/15 01:55:55;;;;;;;4.97;2.50;;;4.60;94.70;;;;;;4993329;28;20042;-48
2021/03/15 01:58:21;;;;;;;5.45;2.00;;;4.60;94.70;;;;;;4989085;28;20051;-53
2021/03/15 02:00:47;;;;;;;3.75;1.77;;;4.60;94.70;;;;;;4996375;28;20050;-49
2021/03/15 02:03:13;;;;;;;5.88;2.28;;;4.60;94.70;;;;;;4996578;28;20053;-47
2021/03/15 02:05:41;;;;;;;4.10;2.50;;;4.60;94.70;;;;;;4997321;28;20045;-46
2021/03/15 02:08:08;;;;;;;3.97;2.10;;;4.60;94.70;;;;;;4984693;28;20045;-51
2021/03/15 02:10:35;;;;;;;3.63;1.92;;;4.50;94.80;;;;;;4998555;28;20510;-47
2021/03/15 02:13:35;;;;;;;2.97;1.88;;;4.40;94.70;;;;;;4999504;28;20809;-47
2021/03/15 02:16:17;;;;;;;4.45;2.10;;;4.40;94.70;;;;;;4994872;28;20050;-48
2021/03/15 02:19:01;;;;;;;3.38;1.63;;;4.30;94.70;;;;;;4998428;28;20058;-47
2021/03/15 02:21:57;;;;;;;5.78;3.13;;;4.20;94.70;;;;;;4992903;28;20050;-49
2021/03/15 02:24:31;;;;;;;6.97;2.97;;;4.20;94.90;;;;;;4999188;28;20518;-52
2021/03/15 02:27:37;;;;;;;6.75;3.15;;;4.20;95.00;;;;;;5000085;28;20054;-51
2021/03/15 02:30:37;;;;;;;4.72;2.25;;;4.30;95.20;;;;;;4986847;28;20051;-48
2021/03/15 02:33:15;;;;;;;5.18;2.97;;;4.30;95.20;;;;;;4977360;28;20068;-52
2021/03/15 02:35:41;;;;;;;6.70;2.58;;;4.30;95.30;;;;;;4992483;28;20096;-48
2021/03/15 02:38:09;;;;;;;5.72;3.00;;;4.30;95.20;;;;;;5001894;28;20379;-48
2021/03/15 02:40:46;;;;;;;8.30;2.88;;;4.40;95.30;;;;;;4997335;28;20096;-52
2021/03/15 02:43:26;;;;;;;7.70;3.20;;;4.30;95.20;;;;;;4986140;28;20050;-48
2021/03/15 02:46:05;;;;;;;5.88;3.08;;;4.40;95.30;;;;;;4996783;28;20081;-49
2021/03/15 02:48:34;;;;;;;7.28;3.10;;;4.40;95.40;;;;;;4996841;28;20057;-49
2021/03/15 02:51:01;;;;;;;9.05;3.20;;;4.50;95.40;;;;;;4999793;28;20042;-46
2021/03/15 02:53:29;;;;;;;9.10;3.85;;;4.50;95.40;;;;;;4999046;28;20069;-47
2021/03/15 02:56:01;;;;;;;5.18;2.80;;;4.40;95.40;;;;;;4996512;28;20050;-49
2021/03/15 02:58:28;;;;;;;7.32;2.90;;;4.40;95.40;;;;;;4992832;28;20042;-50
2021/03/15 03:00:57;;;;;;;6.18;3.13;;;4.30;95.30;;;;;;4999263;28;20076;-46
2021/03/15 03:03:24;;;;;;;4.70;2.92;;;4.20;95.30;;;;;;4993492;28;20192;-52
2021/03/15 03:05:51;;;;;;;6.50;2.92;;;4.20;95.30;;;;;;4992368;28;20080;-48
2021/03/15 03:08:19;;;;;;;8.35;3.53;;;4.10;95.30;;;;;;4991996;28;20054;-47
2021/03/15 03:10:50;;;;;;;5.78;3.20;;;4.00;95.20;;;;;;4995594;28;20109;-46
2021/03/15 03:13:18;;;;;;;6.75;3.17;;;3.90;95.30;;;;;;4995345;28;20057;-47
2021/03/15 03:15:45;;;;;;;7.75;3.30;;;3.90;95.30;;;;;;5002544;28;20563;-47
2021/03/15 03:18:15;;;;;;;9.85;3.33;;;3.80;95.30;;;;;;4999952;28;20057;-49
2021/03/15 03:20:48;;;;;;;6.03;3.28;;;3.70;95.30;;;;;;4998454;28;20058;-51
2021/03/15 03:23:17;;;;;;;6.47;3.35;;;3.70;95.40;;;;;;5000703;28;20041;-46
2021/03/15 03:25:43;;;;;;;8.93;4.13;;;3.60;95.80;;;;;;5000799;28;20498;-48
2021/03/15 03:28:09;;;;;;;14.70;4.20;;;3.60;95.60;;;;;;4994532;28;20050;-48
2021/03/15 03:30:40;;;;;;;11.68;4.25;;;3.60;95.60;;;;;;4996885;28;20050;-48
2021/03/15 03:33:09;;;;;;;8.50;4.28;;;3.50;95.70;;;;;;4995127;28;20046;-47
2021/03/15 03:35:37;;;;;;;8.43;3.63;;;3.50;95.90;;;;;;4990914;28;20053;-48
2021/03/15 03:38:03;;;;;;;11.85;4.18;;;3.40;95.90;;;;;;4997716;28;20517;-52
2021/03/15 03:40:29;;;;;;;9.77;4.03;;;3.40;95.90;;;;;;4989342;28;21768;-45
2021/03/15 03:42:55;;;;;;;11.10;4.43;;;3.40;95.90;;;;;;4999603;28;20139;-47
2021/03/15 03:45:21;;;;;;;8.18;4.32;;;3.40;96.00;;;;;;4989348;28;20046;-49
2021/03/15 03:47:48;;;;;;;10.55;4.70;;;3.30;96.10;;;;;;4995172;28;20093;-48
2021/03/15 03:50:17;;;;;;;11.18;5.40;;;3.40;96.30;;;;;;4997578;28;20578;-46
2021/03/15 03:52:57;;;;;;;15.70;5.75;;;3.50;96.40;;;;;;4992744;28;20077;-46
2021/03/15 03:55:29;;;;;;;11.57;5.55;;;3.60;96.50;;;;;;4992266;28;20491;-51
2021/03/15 03:57:58;;;;;;;15.77;5.40;;;3.60;96.50;;;;;;4994247;28;20050;-46
2021/03/15 04:00:24;;;;;;;15.95;6.53;;;3.70;96.60;;;;;;4990374;28;20049;-50
2021/03/15 04:02:54;;;;;;;12.95;5.70;;;3.80;97.00;;;;;;4990221;28;20127;-49
2021/03/15 04:05:27;;;;;;;12.82;6.03;;;3.70;96.80;;;;;;4995791;28;20058;-48
2021/03/15 04:08:06;;;;;;;13.88;6.20;;;3.70;96.70;;;;;;4991844;28;20050;-45
2021/03/15 04:10:34;;;;;;;16.50;6.28;;;3.70;96.90;;;;;;4996852;28;20046;-51
2021/03/15 04:13:07;;;;;;;21.42;7.47;;;3.70;96.80;;;;;;5006370;28;20050;-49
2021/03/15 04:15:40;;;;;;;19.38;7.30;;;3.80;97.20;;;;;;5003484;28;20410;-45
2021/03/15 04:18:07;;;;;;;19.80;8.40;;;3.80;97.30;;;;;;4998535;28;20676;-55
2021/03/15 04:20:36;;;;;;;18.50;6.95;;;3.80;97.40;;;;;;4998871;28;20851;-46
2021/03/15 04:23:07;;;;;;;21.38;7.88;;;3.80;97.30;;;;;;4989471;28;20047;-48
2021/03/15 04:25:36;;;;;;;23.45;8.95;;;3.80;97.50;;;;;;4996315;28;20046;-48
2021/03/15 04:28:04;;;;;;;22.50;8.23;;;3.90;97.60;;;;;;4995745;28;20077;-47
2021/03/15 04:30:30;;;;;;;22.85;7.72;;;4.00;97.60;;;;;;5001875;28;20536;-52
2021/03/15 04:32:57;;;;;;;22.88;8.30;;;4.00;97.50;;;;;;4996827;28;20129;-48
2021/03/15 04:35:30;;;;;;;18.52;8.38;;;4.00;97.50;;;;;;4998374;28;20065;-46
2021/03/15 04:37:57;;;;;;;;;;;4.00;97.50;;;;;;5001725;28;20510;-48
2021/03/15 04:40:26;;;;;;;17.95;8.43;;;4.00;97.60;;;;;;5000746;28;19964;-46
2021/03/15 04:42:53;;;;;;;24.88;7.97;;;4.00;97.60;;;;;;5000864;28;20065;-50
2021/03/15 04:45:22;;;;;;;24.42;9.48;;;4.00;97.60;;;;;;4997086;28;20697;-47
2021/03/15 04:47:48;;;;;;;20.98;8.98;;;4.00;97.60;;;;;;4976251;28;20046;-46
2021/03/15 04:50:19;;;;;;;28.38;9.38;;;4.00;97.60;;;;;;4993168;28;20490;-47
2021/03/15 04:52:46;;;;;;;23.60;9.73;;;4.00;97.60;;;;;;4998446;28;20073;-54
2021/03/15 04:55:13;;;;;;;27.45;9.23;;;4.00;97.50;;;;;;4995858;28;20050;-47
2021/03/15 04:57:41;;;;;;;22.92;8.73;;;3.90;97.50;;;;;;5001898;28;20406;-47
2021/03/15 05:00:09;;;;;;;26.23;9.50;;;3.90;97.60;;;;;;5000599;28;20574;-53
2021/03/15 05:02:37;;;;;;;26.52;9.35;;;3.90;97.70;;;;;;4998176;28;20156;-53
2021/03/15 05:05:05;;;;;;;27.42;8.80;;;3.90;97.70;;;;;;4995312;28;20054;-48
2021/03/15 05:07:31;;;;;;;28.10;10.98;;;3.90;97.70;;;;;;4999685;28;20752;-46
2021/03/15 05:10:00;;;;;;;28.35;9.93;;;4.00;97.80;;;;;;5002331;28;20871;-49
2021/03/15 05:12:27;;;;;;;22.00;9.70;;;4.00;97.80;;;;;;4994477;28;20127;-46
2021/03/15 05:14:56;;;;;;;26.10;9.80;;;4.00;97.70;;;;;;5001256;28;20064;-49
2021/03/15 05:17:27;;;;;;;30.75;10.27;;;4.10;97.80;;;;;;5001195;28;20042;-47
2021/03/15 05:19:54;;;;;;;24.90;9.20;;;4.10;97.70;;;;;;4995251;28;20149;-53
2021/03/15 05:22:20;;;;;;;27.90;10.40;;;4.20;97.60;;;;;;4996313;28;20054;-52
2021/03/15 05:24:49;;;;;;;32.67;9.60;;;4.20;97.50;;;;;;4999976;28;20372;-45
2021/03/15 05:27:15;;;;;;;26.85;9.88;;;4.20;97.50;;;;;;4997295;28;20518;-52
2021/03/15 05:29:41;;;;;;;23.77;8.45;;;4.20;97.50;;;;;;4996165;28;20050;-52
2021/03/15 05:32:08;;;;;;;22.45;7.82;;;4.20;97.40;;;;;;4995251;28;20057;-50
2021/03/15 05:34:38;;;;;;;20.30;7.95;;;4.20;97.30;;;;;;5004131;28;20449;-48
2021/03/15 05:37:05;;;;;;;27.75;8.10;;;4.10;97.30;;;;;;4992296;28;20046;-49
2021/03/15 05:39:32;;;;;;;20.45;7.38;;;4.10;97.30;;;;;;4999575;28;20076;-46
2021/03/15 05:41:57;;;;;;;21.45;7.28;;;4.10;97.30;;;;;;4997571;28;20053;-48
2021/03/15 05:44:41;;;;;;;22.75;8.45;;;4.10;97.30;;;;;;4992625;28;20054;-47
2021/03/15 05:47:15;;;;;;;33.58;8.52;;;4.10;97.40;;;;;;4998582;28;20051;-48
2021/03/15 05:49:53;;;;;;;28.25;8.20;;;4.10;97.30;;;;;;4993687;28;20050;-50
2021/03/15 05:52:38;;;;;;;23.73;6.93;;;4.10;97.40;;;;;;4993973;28;20395;-49
2021/03/15 05:55:19;;;;;;;27.95;8.30;;;4.10;97.50;;;;;;4995243;28;20418;-48
2021/03/15 05:58:11;;;;;;;20.70;7.07;;;4.10;97.40;;;;;;4996591;28;20056;-53
2021/03/15 06:00:46;;;;;;;31.77;6.95;;;4.10;97.40;;;;;;4997567;28;20554;-47
2021/03/15 06:03:54;;;;;;;30.25;6.65;;;4.10;97.40;;;;;;4999372;28;20132;-52
2021/03/15 06:06:27;;;;;;;33.30;7.13;;;4.10;97.40;;;;;;4992418;28;20141;-51
2021/03/15 06:09:02;;;;;;;25.95;6.68;;;4.10;97.30;;;;;;4995505;28;20102;-47
2021/03/15 06:11:39;;;;;;;24.70;6.15;;;4.00;97.30;;;;;;4991737;28;20050;-47
2021/03/15 06:14:07;;;;;;;29.02;6.95;;;4.00;97.20;;;;;;4960128;28;20046;-49
2021/03/15 06:16:34;;;;;;;32.22;7.50;;;4.00;97.20;;;;;;4996260;28;20097;-48
2021/03/15 06:19:03;;;;;;;24.05;6.28;;;4.00;97.30;;;;;;5002166;28;20089;-49
2021/03/15 06:21:30;;;;;;;35.45;6.63;;;4.00;97.30;;;;;;4999224;28;20803;-47
2021/03/15 06:24:00;;;;;;;21.98;5.18;;;4.00;97.20;;;;;;5001418;28;20045;-49
2021/03/15 06:26:32;;;;;;;27.92;6.03;;;4.10;97.20;;;;;;4995433;28;20108;-49
2021/03/15 06:29:03;;;;;;;22.75;5.93;;;4.20;97.20;;;;;;5003063;28;20080;-47
2021/03/15 06:31:32;;;;;;;21.10;6.32;;;4.20;97.10;;;;;;5001365;28;20403;-51
2021/03/15 06:33:59;;;;;;;25.25;5.55;;;4.30;97.00;;;;;;4992700;28;20614;-47
2021/03/15 06:36:26;;;;;;;19.65;4.95;;;4.40;96.70;;;;;;4995672;28;20098;-50
2021/03/15 06:38:56;;;;;;;30.88;5.88;;;4.40;96.50;;;;;;4996642;28;20181;-53
2021/03/15 06:41:23;;;;;;;23.17;5.53;;;4.40;96.40;;;;;;4992249;28;20058;-54
2021/03/15 06:43:50;;;;;;;26.50;5.57;;;4.50;96.20;;;;;;4994884;28;20517;-53
2021/03/15 06:46:16;;;;;;;27.63;4.57;;;4.50;96.10;;;;;;4983133;28;20150;-53
2021/03/15 06:48:43;;;;;;;23.00;4.55;;;4.50;95.90;;;;;;5002186;28;20875;-54
2021/03/15 06:51:09;;;;;;;34.05;5.70;;;4.50;95.80;;;;;;4990493;28;20046;-52
2021/03/15 06:53:44;;;;;;;29.80;5.28;;;4.70;95.90;;;;;;4985972;28;20422;-56
2021/03/15 06:56:25;;;;;;;25.38;5.32;;;4.90;95.70;;;;;;4927948;28;20255;-52
2021/03/15 06:58:59;;;;;;;28.40;5.15;;;5.00;95.30;;;;;;4983406;28;20418;-53
2021/03/15 07:01:28;;;;;;;24.00;4.55;;;5.10;95.10;;;;;;4996581;28;20586;-54
2021/03/15 07:04:08;;;;;;;27.85;5.10;;;5.10;94.90;;;;;;4966406;28;20049;-52
2021/03/15 07:06:39;;;;;;;24.38;4.25;;;5.20;94.70;;;;;;4998819;28;20077;-50
2021/03/15 07:09:15;;;;;;;149.85;100.78;;;5.20;94.70;;;;;;5001416;28;20052;-56
2021/03/15 07:11:42;;;;;;;51.40;23.30;;;5.30;94.60;;;;;;4996434;28;20135;-52
2021/03/15 07:14:37;;;;;;;25.25;5.05;;;5.30;94.20;;;;;;4994394;28;20116;-48
2021/03/15 07:17:03;;;;;;;30.73;4.93;;;5.30;94.10;;;;;;4912204;29;20052;-49
2021/03/15 07:19:31;;;;;;;39.28;11.90;;;5.40;94.10;;;;;;4915633;29;20513;-51
2021/03/15 07:21:57;;;;;;;34.47;5.30;;;5.40;93.90;;;;;;4921664;29;20196;-51
2021/03/15 07:24:30;;;;;;;31.55;7.32;;;5.40;93.80;;;;;;4920254;29;20055;-52
2021/03/15 07:26:55;;;;;;;36.35;13.75;;;5.50;93.70;;;;;;4925524;29;20060;-50
2021/03/15 07:29:28;;;;;;;24.40;5.72;;;5.70;93.90;;;;;;4917867;29;20055;-54
2021/03/15 07:31:56;;;;;;;36.60;14.60;;;5.80;93.70;;;;;;4919111;29;20067;-50
2021/03/15 07:34:25;;;;;;;24.30;5.15;;;6.00;93.30;;;;;;4854990;29;20050;-55
2021/03/15 07:36:59;;;;;;;27.15;6.43;;;6.00;92.60;;;;;;4891009;29;20771;-52
2021/03/15 07:39:28;;;;;;;28.25;5.53;;;6.00;92.60;;;;;;4904164;29;20056;-53
2021/03/15 07:41:56;;;;;;;28.83;5.90;;;6.00;92.70;;;;;;4904458;29;20162;-52
2021/03/15 07:44:29;;;;;;;22.00;4.43;;;6.00;92.90;;;;;;4905325;29;20056;-51
2021/03/15 07:46:59;;;;;;;20.35;4.75;;;6.10;92.80;;;;;;4903898;29;20059;-50
2021/03/15 07:49:35;;;;;;;23.27;4.95;;;6.20;92.80;;;;;;4904175;29;20086;-54
2021/03/15 07:52:06;;;;;;;23.63;4.32;;;6.30;92.80;;;;;;4903611;29;20502;-51
2021/03/15 07:54:41;;;;;;;32.25;5.30;;;6.30;92.40;;;;;;4980992;28;20047;-55
2021/03/15 07:57:21;;;;;;;40.97;19.88;;;6.30;92.60;;;;;;4980633;28;20050;-50
2021/03/15 07:59:51;;;;;;;36.78;14.15;;;6.30;92.20;;;;;;4979152;28;20483;-53
2021/03/15 08:02:22;;;;;;;31.42;6.03;;;6.30;92.60;;;;;;4980041;28;20069;-55
2021/03/15 08:04:51;;;;;;;31.02;5.45;;;6.20;92.40;;;;;;4981141;28;20042;-53
2021/03/15 08:07:20;;;;;;;25.33;5.72;;;6.10;92.30;;;;;;4984830;28;20116;-52
2021/03/15 08:09:58;;;;;;;25.75;7.38;;;6.10;92.70;;;;;;4998931;28;20046;-51
2021/03/15 08:12:28;;;;;;;32.10;5.30;;;6.20;92.50;;;;;;4982036;28;20073;-49
2021/03/15 08:15:09;;;;;;;42.17;21.50;;;6.10;92.40;;;;;;4975496;28;20133;-49
2021/03/15 08:17:40;;;;;;;24.02;4.75;;;6.30;92.90;;;;;;4982274;28;20088;-52
2021/03/15 08:20:07;;;;;;;29.08;9.48;;;6.30;92.60;;;;;;4984676;28;20046;-50
2021/03/15 08:22:37;;;;;;;22.45;4.80;;;6.30;92.60;;;;;;4988844;28;20483;-49
2021/03/15 08:25:07;;;;;;;23.67;4.43;;;6.30;92.80;;;;;;4978640;28;20043;-49
2021/03/15 08:27:39;;;;;;;22.33;5.10;;;6.30;92.90;;;;;;4985065;28;20050;-50
2021/03/15 08:30:08;;;;;;;25.75;5.53;;;6.30;93.00;;;;;;4978474;28;20097;-49
2021/03/15 08:32:37;;;;;;;29.13;5.55;;;6.20;93.20;;;;;;4980834;28;20054;-47
2021/03/15 08:35:07;;;;;;;24.98;6.35;;;6.20;93.20;;;;;;4970021;28;20055;-51
2021/03/15 08:37:50;;;;;;;21.50;4.03;;;6.20;93.60;;;;;;4978268;28;20074;-52
2021/03/15 08:40:45;;;;;;;32.08;5.18;;;6.30;93.60;;;;;;4978094;28;20112;-54
2021/03/15 08:43:22;;;;;;;25.70;5.28;;;6.20;93.20;;;;;;4985146;28;20388;-48
2021/03/15 08:45:52;;;;;;;27.42;5.15;;;6.20;93.30;;;;;;4976011;28;20050;-48
2021/03/15 08:48:20;;;;;;;71.40;43.42;;;6.30;93.40;;;;;;4983129;28;20054;-51
2021/03/15 08:50:48;;;;;;;23.98;5.95;;;6.60;93.50;;;;;;4987348;28;20427;-53
2021/03/15 08:53:44;;;;;;;24.77;6.88;;;6.50;93.10;;;;;;4979487;28;20057;-50
2021/03/15 08:56:12;;;;;;;24.50;10.40;;;6.60;93.20;;;;;;4978354;28;20133;-49
2021/03/15 08:58:42;;;;;;;18.90;4.47;;;6.70;93.10;;;;;;4970425;28;20069;-51
2021/03/15 09:01:14;;;;;;;22.75;3.40;;;6.60;92.90;;;;;;4987137;28;20527;-52
2021/03/15 09:03:58;;;;;;;21.17;4.20;;;6.60;93.00;;;;;;4986100;28;20573;-51
2021/03/15 09:06:30;;;;;;;25.33;5.50;;;6.60;93.10;;;;;;4982320;28;20407;-51
2021/03/15 09:09:00;;;;;;;28.77;4.38;;;6.70;93.00;;;;;;4985496;28;20058;-55
2021/03/15 09:11:34;;;;;;;27.42;9.20;;;6.80;92.90;;;;;;4980823;28;20533;-51
2021/03/15 09:14:15;;;;;;;;;;;7.00;92.80;;;;;;4985218;28;20058;-50
2021/03/15 09:16:48;;;;;;;26.83;6.47;;;7.10;92.60;;;;;;4980530;28;20367;-49
2021/03/15 09:19:21;;;;;;;28.55;7.90;;;7.20;91.90;;;;;;4991609;28;20048;-52
2021/03/15 09:22:02;;;;;;;18.02;4.47;;;7.20;91.80;;;;;;4969866;28;20046;-52
2021/03/15 09:24:54;;;;;;;24.63;5.13;;;7.10;91.60;;;;;;4976961;28;20452;-48
2021/03/15 09:27:22;;;;;;;23.90;6.35;;;7.00;91.80;;;;;;4982344;28;20066;-51
2021/03/15 09:29:58;;;;;;;50.28;23.08;;;7.00;92.50;;;;;;4979005;28;20400;-52
2021/03/15 09:32:50;;;;;;;19.38;5.15;;;7.00;92.40;;;;;;4983597;28;20046;-49
2021/03/15 09:35:16;;;;;;;;;;;7.10;91.80;;;;;;4987193;28;20046;-53
2021/03/15 09:37:52;;;;;;;21.95;7.45;;;6.80;92.30;;;;;;4987443;28;19933;-53
2021/03/15 09:40:24;;;;;;;18.65;4.13;;;6.70;91.60;;;;;;4987252;28;20113;-55
2021/03/15 09:42:50;;;;;;;12.90;2.72;;;6.60;91.60;;;;;;4980960;28;20058;-52
2021/03/15 09:45:53;;;;;;;14.48;4.00;;;6.60;91.60;;;;;;4976373;28;20074;-57
2021/03/15 09:48:21;;;;;;;19.05;5.20;;;6.70;91.80;;;;;;4979704;28;20200;-57
2021/03/15 09:50:51;;;;;;;26.58;12.55;;;7.10;91.50;;;;;;4971627;28;20054;-56
2021/03/15 09:53:18;;;;;;;18.33;8.35;;;7.40;91.30;;;;;;4984389;28;20046;-55
2021/03/15 09:55:48;;;;;;;21.05;6.05;;;7.50;90.70;;;;;;4984386;28;20058;-52
2021/03/15 09:58:21;;;;;;;20.48;6.05;;;7.60;90.80;;;;;;4984289;28;20141;-50
2021/03/15 10:00:54;;;;;;;19.77;4.22;;;7.70;90.90;;;;;;4984239;28;20105;-53
2021/03/15 10:03:21;;;;;;;14.88;3.10;;;7.70;90.50;;;;;;4986299;28;20050;-52
2021/03/15 10:05:52;;;;;;;19.10;4.18;;;7.80;90.60;;;;;;4982442;28;20047;-55
2021/03/15 10:08:19;;;;;;;17.10;3.65;;;7.70;89.20;;;;;;4982638;28;20042;-52
2021/03/15 10:10:50;;;;;;;22.88;4.25;;;7.70;88.50;;;;;;4987237;28;20141;-50
2021/03/15 10:13:16;;;;;;;24.55;3.90;;;7.70;88.90;;;;;;4976639;28;20511;-53
2021/03/15 10:15:46;;;;;;;16.85;3.92;;;7.90;89.60;;;;;;4983994;28;20055;-55
2021/03/15 10:18:20;;;;;;;19.20;4.53;;;7.90;88.70;;;;;;4978758;28;20066;-55
2021/03/15 10:20:46;;;;;;;24.02;3.95;;;7.80;88.10;;;;;;4977648;28;20054;-52
2021/03/15 10:23:13;;;;;;;23.92;3.92;;;7.80;88.60;;;;;;4980986;28;20049;-54
2021/03/15 10:25:55;;;;;;;33.10;15.23;;;7.70;87.10;;;;;;4979292;28;20057;-50
2021/03/15 10:28:23;;;;;;;24.73;7.38;;;7.80;88.30;;;;;;4975846;28;20070;-48
2021/03/15 10:30:50;;;;;;;32.70;12.38;;;8.00;88.70;;;;;;4981389;28;20042;-55
2021/03/15 10:33:22;;;;;;;21.40;5.32;;;8.00;88.20;;;;;;4974525;28;20054;-50
2021/03/15 10:35:52;;;;;;;20.55;5.07;;;8.00;86.60;;;;;;4973385;28;20046;-54
2021/03/15 10:38:20;;;;;;;22.90;4.22;;;8.00;86.70;;;;;;4958718;28;20414;-54
2021/03/15 10:40:46;;;;;;;19.73;5.03;;;8.10;86.90;;;;;;4979158;28;20495;-52
2021/03/15 10:43:19;;;;;;;15.38;4.65;;;8.20;86.70;;;;;;4977717;28;20046;-51
2021/03/15 10:45:52;;;;;;;19.20;3.85;;;8.40;84.50;;;;;;4974467;28;20062;-51
2021/03/15 10:48:21;;;;;;;20.85;4.63;;;9.00;85.10;;;;;;4982937;28;20133;-52
2021/03/15 10:50:47;;;;;;;19.55;4.32;;;9.90;80.80;;;;;;4982083;28;20112;-53
2021/03/15 10:53:23;;;;;;;17.80;3.35;;;10.60;76.20;;;;;;4982010;28;20050;-55
2021/03/15 10:55:53;;;;;;;18.90;4.45;;;11.10;73.10;;;;;;4955128;28;20061;-52
2021/03/15 10:58:20;;;;;;;15.43;4.22;;;10.60;74.20;;;;;;4971569;28;20053;-55
2021/03/15 11:00:49;;;;;;;18.30;4.82;;;10.20;78.10;;;;;;4959175;28;20546;-52
2021/03/15 11:03:24;;;;;;;16.27;4.10;;;9.40;76.60;;;;;;4981486;28;20491;-52
2021/03/15 11:06:27;;;;;;;21.52;3.70;;;9.90;77.20;;;;;;4969047;28;20059;-53
2021/03/15 11:08:54;;;;;;;16.88;3.30;;;10.00;74.30;;;;;;4915581;29;20501;-44
2021/03/15 11:11:25;;;;;;;18.35;3.92;;;9.80;76.30;;;;;;4918591;29;20464;-43
2021/03/15 11:13:53;;;;;;;19.45;4.43;;;9.30;75.90;;;;;;4920059;29;20056;-45
2021/03/15 11:16:30;;;;;;;16.17;4.15;;;9.00;76.00;;;;;;4917659;29;20116;-46
2021/03/15 11:19:05;;;;;;;16.50;3.97;;;8.70;76.90;;;;;;4923216;29;20089;-42
2021/03/15 11:21:35;;;;;;;14.35;3.17;;;8.70;77.30;;;;;;4917206;29;20138;-41
2021/03/15 11:24:03;;;;;;;21.13;4.40;;;9.30;77.00;;;;;;4918177;29;20091;-42
2021/03/15 11:26:41;;;;;;;15.32;4.00;;;9.20;73.90;;;;;;4924147;28;20071;-42
2021/03/15 11:29:07;;;;;;;15.02;2.97;;;9.10;75.80;;;;;;4922988;29;20581;-45
2021/03/15 11:31:33;;;;;;;15.15;2.85;;;8.80;75.10;;;;;;4924460;29;20060;-42
2021/03/15 11:34:03;;;;;;;20.92;3.83;;;8.70;76.70;;;;;;4923247;29;20774;-44
2021/03/15 11:36:33;;;;;;;14.70;3.65;;;8.40;76.40;;;;;;4926916;29;20093;-43
2021/03/15 11:39:05;;;;;;;16.80;3.97;;;8.40;77.90;;;;;;4923671;29;20736;-42
2021/03/15 11:41:32;;;;;;;14.63;2.83;;;8.40;77.90;;;;;;4924051;29;20051;-43
2021/03/15 11:44:00;;;;;;;13.05;2.97;;;9.30;76.60;;;;;;4942863;28;20309;-43
2021/03/15 11:46:26;;;;;;;20.75;3.67;;;9.70;71.60;;;;;;4985650;28;20478;-42
2021/03/15 11:48:52;;;;;;;14.95;3.15;;;9.70;72.40;;;;;;4986429;28;20084;-48
2021/03/15 11:51:20;;;;;;;19.50;3.42;;;9.40;74.40;;;;;;4975838;28;20476;-43
2021/03/15 11:53:46;;;;;;;15.07;3.60;;;9.10;75.20;;;;;;4985140;28;20065;-47
2021/03/15 11:56:13;;;;;;;20.13;3.33;;;8.80;75.40;;;;;;4973098;28;20566;-45
2021/03/15 11:58:43;;;;;;;22.00;3.58;;;8.70;76.60;;;;;;4985628;28;20073;-42
2021/03/15 12:01:09;;;;;;;25.63;5.25;;;8.70;77.50;;;;;;4978230;28;20050;-42
2021/03/15 12:03:36;;;;;;;17.73;4.00;;;8.70;77.20;;;;;;4985573;28;20046;-43
2021/03/15 12:06:03;;;;;;;16.38;3.28;;;8.70;76.70;;;;;;4986092;28;20047;-41
2021/03/15 12:08:29;;;;;;;20.80;3.38;;;8.60;77.90;;;;;;4973507;28;20466;-41
2021/03/15 12:10:55;;;;;;;21.27;5.13;;;8.60;77.60;;;;;;4972430;28;20310;-42
2021/03/15 12:13:21;;;;;;;20.48;4.15;;;8.70;78.10;;;;;;4983477;28;20054;-42
2021/03/15 12:15:47;;;;;;;25.77;4.82;;;9.00;77.10;;;;;;4983529;28;20050;-47
2021/03/15 12:18:13;;;;;;;24.00;4.43;;;9.00;76.70;;;;;;4988580;28;20046;-42
2021/03/15 12:20:39;;;;;;;21.08;4.50;;;9.10;77.50;;;;;;4976030;28;20054;-42
2021/03/15 12:23:10;;;;;;;17.65;4.32;;;10.20;77.50;;;;;;4972026;28;20054;-41
2021/03/15 12:25:39;;;;;;;20.27;4.13;;;10.50;74.60;;;;;;4983067;28;20042;-46
2021/03/15 12:28:10;;;;;;;20.30;5.75;;;10.30;71.60;;;;;;4974670;28;20125;-41
2021/03/15 12:30:38;;;;;;;20.60;4.68;;;10.50;74.60;;;;;;4987427;28;20042;-43
2021/03/15 12:33:07;;;;;;;16.23;3.33;;;10.30;73.60;;;;;;4984263;28;20086;-42
2021/03/15 12:35:36;;;;;;;23.70;4.80;;;9.70;71.20;;;;;;4983213;28;20057;-43
2021/03/15 12:38:06;;;;;;;18.02;4.30;;;9.40;71.60;;;;;;4982495;28;20046;-42
2021/03/15 12:40:32;;;;;;;18.83;3.65;;;9.20;72.00;;;;;;4974706;28;20046;-45
2021/03/15 12:42:57;;;;;;;16.20;4.20;;;9.10;74.00;;;;;;4983970;28;20069;-45
2021/03/15 12:45:23;;;;;;;22.65;4.22;;;9.10;75.00;;;;;;4986143;28;20520;-42
2021/03/15 12:47:50;;;;;;;17.98;4.00;;;9.20;74.60;;;;;;4988354;28;20050;-42
2021/03/15 12:50:16;;;;;;;16.98;3.70;;;9.40;75.60;;;;;;4990754;28;20491;-42
2021/03/15 12:52:48;;;;;;;15.88;3.35;;;9.70;71.60;;;;;;4985633;28;20062;-45
2021/03/15 12:55:16;;;;;;;14.77;3.35;;;9.90;71.00;;;;;;4978888;28;20397;-42
2021/03/15 12:57:42;;;;;;;19.25;4.05;;;9.50;70.00;;;;;;4976940;28;20135;-47
2021/03/15 13:00:10;;;;;;;20.40;4.00;;;9.50;74.00;;;;;;4987803;28;20042;-43
2021/03/15 13:02:36;;;;;;;17.50;3.60;;;9.80;72.90;;;;;;4987786;28;20116;-42
2021/03/15 13:05:07;;;;;;;16.85;3.90;;;10.10;71.60;;;;;;4983511;28;20051;-51
2021/03/15 13:07:33;;;;;;;17.05;4.05;;;10.10;69.80;;;;;;4987710;28;20054;-43